Terminal Aerodrome Forecast
Issued by NWS

Home | Current Version | Previous Version | Text Only | Print | Product List | Glossary On
Versions: 1 2 3 4 5 6 7 8 9 10 11 12 13 14
076
FTUS42 TJSJ 291846 AAA
TAFJMZ
TAF AMD
TJMZ 291846Z 2919/3018 VRB10KT P6SM VCTS SCT020CB BKN040
      TEMPO 2919/2923 5SM -TSRA SCT015CB BKN025 OVC060
     FM292300 VRB06KT P6SM FEW060
     FM301400 VRB10KT P6SM VCSH SCT025 SCT050
      AMD NOT SKED=

USA.gov is the U.S. government's official web portal to all federal, state and local government web resources and services.